createdAt,value
2022-11-20T00:01:20.153Z,9.66
2022-11-20T00:03:50.774Z,9.50
2022-11-20T00:06:21.592Z,9.68
2022-11-20T00:08:49.160Z,9.81
2022-11-20T00:11:21.608Z,9.74
2022-11-20T00:13:50.266Z,9.86
2022-11-20T00:16:19.483Z,9.81
2022-11-20T00:18:46.677Z,9.86
2022-11-20T00:21:19.355Z,9.81
2022-11-20T00:23:46.536Z,9.84
2022-11-20T00:26:18.203Z,9.76
2022-11-20T00:28:45.797Z,9.74
2022-11-20T00:31:15.145Z,9.77
2022-11-20T00:33:43.643Z,9.81
2022-11-20T00:36:12.184Z,9.75
2022-11-20T00:38:38.833Z,9.68
2022-11-20T00:41:08.208Z,9.72
2022-11-20T00:43:35.396Z,9.68
2022-11-20T00:46:07.676Z,9.57
2022-11-20T00:48:34.492Z,9.54
2022-11-20T00:51:01.732Z,9.73
2022-11-20T00:53:28.966Z,9.61
2022-11-20T00:56:04.293Z,9.60
2022-11-20T00:58:33.540Z,9.64
2022-11-20T01:01:13.756Z,9.51
2022-11-20T01:03:42.814Z,9.69
2022-11-20T01:06:15.645Z,9.73
2022-11-20T01:08:42.816Z,9.68
2022-11-20T01:11:15.685Z,9.61
2022-11-20T01:13:43.495Z,9.79
2022-11-20T01:16:12.106Z,9.81
2022-11-20T01:18:40.796Z,9.69
2022-11-20T01:21:31.753Z,9.77
2022-11-20T01:23:59.465Z,9.70
2022-11-20T01:26:33.730Z,9.73
2022-11-20T01:29:01.008Z,9.76
2022-11-20T01:31:33.491Z,9.64
2022-11-20T01:34:02.631Z,9.81
2022-11-20T01:36:30.929Z,9.70
2022-11-20T01:39:00.731Z,9.73
2022-11-20T01:41:48.059Z,9.68
2022-11-20T01:44:17.551Z,9.62
2022-11-20T01:46:56.703Z,9.65
2022-11-20T01:49:51.288Z,9.31
2022-11-20T01:52:28.182Z,9.38
2022-11-20T01:55:01.924Z,9.28
2022-11-20T01:57:30.928Z,8.98
2022-11-20T02:00:10.776Z,9.40
2022-11-20T02:02:42.931Z,9.44
2022-11-20T02:05:32.828Z,9.44
2022-11-20T02:08:00.449Z,9.03
2022-11-20T02:10:28.289Z,9.45
2022-11-20T02:13:13.508Z,9.28
2022-11-20T02:15:41.243Z,9.21
2022-11-20T02:18:08.129Z,9.23
2022-11-20T02:20:34.827Z,9.37
2022-11-20T02:23:09.979Z,9.58
2022-11-20T02:25:38.024Z,9.08
2022-11-20T02:28:05.131Z,9.34
2022-11-20T02:30:31.867Z,9.40
2022-11-20T02:32:59.215Z,9.31
2022-11-20T02:35:25.834Z,9.09
2022-11-20T02:37:55.649Z,9.12
2022-11-20T02:40:23.025Z,9.28
2022-11-20T02:42:53.484Z,9.33
2022-11-20T02:45:20.258Z,9.25
2022-11-20T02:47:47.017Z,9.28
2022-11-20T02:50:13.893Z,9.17
2022-11-20T02:52:40.553Z,8.96
2022-11-20T02:55:07.960Z,9.19
2022-11-20T02:57:34.767Z,9.11
2022-11-20T03:00:01.732Z,9.41
2022-11-20T03:02:31.709Z,9.16
2022-11-20T03:04:58.523Z,8.94
2022-11-20T03:07:25.455Z,8.44
2022-11-20T03:09:52.239Z,8.61
2022-11-20T03:12:18.987Z,8.96
2022-11-20T03:14:50.207Z,9.23
2022-11-20T03:17:19.548Z,9.02
2022-11-20T03:19:46.390Z,8.89
2022-11-20T03:22:13.294Z,8.72
2022-11-20T03:24:40.119Z,9.26
2022-11-20T03:27:06.889Z,8.93
2022-11-20T03:29:33.781Z,9.26
2022-11-20T03:32:00.478Z,9.14
2022-11-20T03:34:27.219Z,9.06
2022-11-20T03:36:53.887Z,9.16
2022-11-20T03:39:21.029Z,8.77
2022-11-20T03:41:48.158Z,8.81
2022-11-20T03:44:14.944Z,8.82
2022-11-20T03:46:41.627Z,9.02
2022-11-20T03:49:08.621Z,8.94
2022-11-20T03:51:36.820Z,9.09
2022-11-20T03:54:06.934Z,9.31
2022-11-20T03:56:36.026Z,9.41
2022-11-20T03:59:02.905Z,9.02
2022-11-20T04:01:32.306Z,9.10
2022-11-20T04:04:00.333Z,9.05
2022-11-20T04:06:29.566Z,9.18
2022-11-20T04:08:57.249Z,9.40
2022-11-20T04:11:29.164Z,9.45
2022-11-20T04:13:58.272Z,9.57
2022-11-20T04:16:26.224Z,9.48
2022-11-20T04:18:57.699Z,9.19
2022-11-20T04:21:25.421Z,9.42
2022-11-20T04:23:53.878Z,9.54
2022-11-20T04:26:21.873Z,9.54
2022-11-20T04:28:48.763Z,9.54
2022-11-20T04:31:24.122Z,9.68
2022-11-20T04:33:51.042Z,9.67
2022-11-20T04:36:25.937Z,9.74
2022-11-20T04:38:57.919Z,9.75
2022-11-20T04:41:27.324Z,9.68
2022-11-20T04:44:00.435Z,9.82
2022-11-20T04:46:28.555Z,9.91
2022-11-20T04:48:55.621Z,9.93
2022-11-20T04:51:22.664Z,9.90
2022-11-20T04:53:49.630Z,9.92
2022-11-20T04:56:16.790Z,9.77
2022-11-20T04:58:43.769Z,9.84
2022-11-20T05:01:16.473Z,9.76
2022-11-20T05:03:44.503Z,9.55
2022-11-20T05:06:13.526Z,9.60
2022-11-20T05:08:40.702Z,9.51
2022-11-20T05:11:15.980Z,9.36
2022-11-20T05:13:43.485Z,9.24
2022-11-20T05:16:16.051Z,8.87
2022-11-20T05:18:43.488Z,8.76
2022-11-20T05:21:14.104Z,9.24
2022-11-20T05:23:42.016Z,9.52
2022-11-20T05:26:14.497Z,9.38
2022-11-20T05:28:41.624Z,9.32
2022-11-20T05:31:14.130Z,9.44
2022-11-20T05:33:42.588Z,9.67
2022-11-20T05:36:10.352Z,9.81
2022-11-20T05:38:37.074Z,9.87
2022-11-20T05:41:08.100Z,9.95
2022-11-20T05:43:35.904Z,9.73
2022-11-20T05:46:03.194Z,9.64
2022-11-20T05:48:29.954Z,9.59
2022-11-20T05:50:59.042Z,9.83
2022-11-20T05:53:27.747Z,9.90
2022-11-20T05:56:07.249Z,10.03
2022-11-20T05:58:34.726Z,10.03
2022-11-20T06:01:18.333Z,10.05
2022-11-20T06:03:50.516Z,10.12
2022-11-20T06:06:18.587Z,9.96
2022-11-20T06:08:45.926Z,9.71
2022-11-20T06:11:14.126Z,9.74
2022-11-20T06:13:42.568Z,9.66
2022-11-20T06:16:10.513Z,9.56
2022-11-20T06:18:37.330Z,8.85
2022-11-20T06:21:09.574Z,8.79
2022-11-20T06:23:37.329Z,8.93
2022-11-20T06:26:12.250Z,8.79
2022-11-20T06:28:39.560Z,8.61
2022-11-20T06:31:07.653Z,9.19
2022-11-20T06:33:34.630Z,9.32
2022-11-20T06:36:05.889Z,9.46
2022-11-20T06:38:37.027Z,9.04
2022-11-20T06:41:05.204Z,9.15
2022-11-20T06:43:32.213Z,9.15
2022-11-20T06:46:00.299Z,9.06
2022-11-20T06:48:28.444Z,9.01
2022-11-20T06:50:55.329Z,8.86
2022-11-20T06:53:22.676Z,8.87
2022-11-20T06:55:50.192Z,8.77
2022-11-20T06:58:17.489Z,8.95
2022-11-20T07:00:44.723Z,8.99
2022-11-20T07:03:12.355Z,8.81
2022-11-20T07:05:39.621Z,8.77
2022-11-20T07:08:06.783Z,8.59
2022-11-20T07:10:34.284Z,8.94
2022-11-20T07:13:01.053Z,8.45
2022-11-20T07:15:28.314Z,8.67
2022-11-20T07:17:55.380Z,8.77
2022-11-20T07:20:22.334Z,9.00
2022-11-20T07:22:55.078Z,8.82
2022-11-20T07:25:21.876Z,8.61
2022-11-20T07:27:48.804Z,8.68
2022-11-20T07:30:16.720Z,9.16
2022-11-20T07:32:43.691Z,9.06
2022-11-20T07:35:10.747Z,8.67
2022-11-20T07:37:37.540Z,8.96
2022-11-20T07:40:04.856Z,8.86
2022-11-20T07:42:31.707Z,9.18
2022-11-20T07:45:01.179Z,9.36
2022-11-20T07:47:28.171Z,8.93
2022-11-20T07:49:55.230Z,9.27
2022-11-20T07:52:22.439Z,9.31
2022-11-20T07:54:49.274Z,9.45
2022-11-20T07:57:16.079Z,9.35
2022-11-20T07:59:42.914Z,9.51
2022-11-20T08:02:12.436Z,9.52
2022-11-20T08:04:39.597Z,9.63
2022-11-20T08:07:06.481Z,9.39
2022-11-20T08:09:33.879Z,9.31
2022-11-20T08:12:19.294Z,9.42
2022-11-20T08:14:46.040Z,9.68
2022-11-20T08:17:13.467Z,9.69
2022-11-20T08:19:40.271Z,9.62
2022-11-20T08:22:11.725Z,9.79
2022-11-20T08:24:43.811Z,9.95
2022-11-20T08:27:10.536Z,9.67
2022-11-20T08:29:40.456Z,9.64
2022-11-20T08:32:07.500Z,9.71
2022-11-20T08:34:34.671Z,9.59
2022-11-20T08:37:03.751Z,9.62
2022-11-20T08:39:30.659Z,9.67
2022-11-20T08:41:57.568Z,9.59
2022-11-20T08:44:25.103Z,10.14
2022-11-20T08:46:52.152Z,9.64
2022-11-20T08:49:19.402Z,9.86
2022-11-20T08:51:48.161Z,9.97
2022-11-20T08:54:15.056Z,10.04
2022-11-20T08:56:41.941Z,9.98
2022-11-20T08:59:43.772Z,10.05
2022-11-20T09:01:59.534Z,9.97
2022-11-20T09:04:26.611Z,9.85
2022-11-20T09:06:53.610Z,10.14
2022-11-20T09:09:21.681Z,9.74
2022-11-20T09:11:58.837Z,9.94
2022-11-20T09:14:30.299Z,9.73
2022-11-20T09:16:57.749Z,9.95
2022-11-20T09:19:35.516Z,9.84
2022-11-20T09:22:08.198Z,9.59
2022-11-20T09:24:35.263Z,9.93
2022-11-20T09:27:06.357Z,10.25
2022-11-20T09:29:33.361Z,10.12
2022-11-20T09:32:00.414Z,10.15
2022-11-20T09:34:31.338Z,9.94
2022-11-20T09:37:01.524Z,10.02
2022-11-20T09:39:35.290Z,10.08
2022-11-20T09:42:14.818Z,9.90
2022-11-20T09:44:58.754Z,10.24
2022-11-20T09:47:47.579Z,9.94
2022-11-20T09:50:28.184Z,10.23
2022-11-20T09:53:31.241Z,9.78
2022-11-20T09:56:05.070Z,9.84
2022-11-20T09:58:44.207Z,10.24
2022-11-20T10:01:15.936Z,10.00
2022-11-20T10:03:59.637Z,10.29
2022-11-20T10:06:33.197Z,10.51
2022-11-20T10:09:02.799Z,10.67
2022-11-20T10:11:50.251Z,10.63
2022-11-20T10:14:28.405Z,10.91
2022-11-20T10:17:03.496Z,10.88
2022-11-20T10:19:46.866Z,10.82
2022-11-20T10:22:39.303Z,10.90
2022-11-20T10:25:17.923Z,11.09
2022-11-20T10:27:53.966Z,11.11
2022-11-20T10:30:23.130Z,11.04
2022-11-20T10:33:03.642Z,11.33
2022-11-20T10:35:42.610Z,11.26
2022-11-20T10:39:02.173Z,11.23
2022-11-20T10:41:52.357Z,10.60
2022-11-20T10:44:56.372Z,10.74
2022-11-20T10:47:27.527Z,11.15
2022-11-20T10:50:05.174Z,11.07
2022-11-20T10:53:10.348Z,11.50
2022-11-20T10:55:52.319Z,11.58
2022-11-20T10:58:35.633Z,11.48
2022-11-20T11:01:17.641Z,11.41
2022-11-20T11:03:45.307Z,10.95
2022-11-20T11:06:37.298Z,11.52
2022-11-20T11:09:14.628Z,11.21
2022-11-20T11:11:41.687Z,10.99
2022-11-20T11:14:09.468Z,10.89
2022-11-20T11:16:40.855Z,11.20
2022-11-20T11:19:17.995Z,11.26
2022-11-20T11:21:58.223Z,11.28
2022-11-20T11:24:46.256Z,11.21
2022-11-20T11:27:17.515Z,11.69
2022-11-20T11:29:50.532Z,11.50
2022-11-20T11:32:23.028Z,11.31
2022-11-20T11:35:05.446Z,11.14
2022-11-20T11:37:37.464Z,11.22
2022-11-20T11:40:24.283Z,11.57
2022-11-20T11:42:59.446Z,11.19
2022-11-20T11:45:27.406Z,11.44
2022-11-20T11:47:57.304Z,11.60
2022-11-20T11:50:31.043Z,11.83
2022-11-20T11:53:11.671Z,11.75
2022-11-20T11:55:58.096Z,11.49
2022-11-20T11:58:30.131Z,11.53
2022-11-20T12:01:39.867Z,11.56
2022-11-20T12:04:29.909Z,11.62
2022-11-20T12:07:24.599Z,12.04
2022-11-20T12:09:56.139Z,11.56
2022-11-20T12:12:30.397Z,11.91
2022-11-20T12:15:01.175Z,11.57
2022-11-20T12:17:28.066Z,11.63
2022-11-20T12:19:55.452Z,11.26
2022-11-20T12:22:45.786Z,11.55
2022-11-20T12:25:29.926Z,11.20
2022-11-20T12:28:23.880Z,11.12
2022-11-20T12:31:26.111Z,11.50
2022-11-20T12:34:05.254Z,11.08
2022-11-20T12:36:39.160Z,11.20
2022-11-20T12:39:24.211Z,11.41
2022-11-20T12:42:36.930Z,11.89
2022-11-20T12:45:30.715Z,11.50
2022-11-20T12:48:02.831Z,11.54
2022-11-20T12:51:20.061Z,11.20
2022-11-20T12:54:06.312Z,11.18
2022-11-20T12:56:47.879Z,11.25
2022-11-20T12:59:49.547Z,11.37
2022-11-20T13:02:36.017Z,11.21
2022-11-20T13:05:03.863Z,11.33
2022-11-20T13:07:36.630Z,11.24
2022-11-20T13:10:23.775Z,11.10
2022-11-20T13:13:13.865Z,11.41
2022-11-20T13:16:12.461Z,11.35
2022-11-20T13:18:50.326Z,11.34
2022-11-20T13:21:20.652Z,11.16
2022-11-20T13:23:48.509Z,11.28
2022-11-20T13:26:24.547Z,11.43
2022-11-20T13:29:10.668Z,11.61
2022-11-20T13:31:43.927Z,11.32
2022-11-20T13:34:27.175Z,11.04
2022-11-20T13:36:56.680Z,11.07
2022-11-20T13:39:38.271Z,11.03
2022-11-20T13:42:15.552Z,10.88
2022-11-20T13:44:52.991Z,10.81
2022-11-20T13:47:27.713Z,10.67
2022-11-20T13:50:00.779Z,10.70
2022-11-20T13:52:55.826Z,11.20
2022-11-20T13:55:51.417Z,10.84
2022-11-20T13:58:21.776Z,10.95
2022-11-20T14:00:58.908Z,11.16
2022-11-20T14:04:04.158Z,10.76
2022-11-20T14:06:33.012Z,10.70
2022-11-20T14:09:03.700Z,10.89
2022-11-20T14:11:32.092Z,10.58
2022-11-20T14:14:09.522Z,10.73
2022-11-20T14:16:42.045Z,10.81
2022-11-20T14:22:40.164Z,10.92
2022-11-20T14:25:21.222Z,10.48
2022-11-20T14:28:17.278Z,10.60
2022-11-20T14:31:32.642Z,10.58
2022-11-20T14:36:54.512Z,10.61
2022-11-20T14:39:27.407Z,10.78
2022-11-20T14:42:00.966Z,10.54
2022-11-20T14:44:34.789Z,10.73
2022-11-20T14:47:03.961Z,10.78
2022-11-20T14:49:32.341Z,11.05
2022-11-20T14:52:10.532Z,10.36
2022-11-20T14:54:46.150Z,10.73
2022-11-20T14:57:32.385Z,10.68
2022-11-20T15:00:09.113Z,10.72
2022-11-20T15:03:07.604Z,10.64
2022-11-20T15:05:51.870Z,10.63
2022-11-20T15:08:22.401Z,11.02
2022-11-20T15:14:27.573Z,10.87
2022-11-20T15:16:55.149Z,10.97
2022-11-20T15:19:30.031Z,10.77
2022-11-20T15:21:57.656Z,10.89
2022-11-20T15:24:27.928Z,10.98
2022-11-20T15:26:58.131Z,11.03
2022-11-20T15:29:31.047Z,10.68
2022-11-20T15:31:58.072Z,10.65
2022-11-20T15:34:27.431Z,10.59
2022-11-20T15:36:56.783Z,10.50
2022-11-20T15:39:26.581Z,10.55
2022-11-20T15:41:53.724Z,10.66
2022-11-20T15:44:23.892Z,10.53
2022-11-20T15:46:51.460Z,10.69
2022-11-20T15:49:20.163Z,11.15
2022-11-20T15:51:52.205Z,11.18
2022-11-20T15:54:23.763Z,11.16
2022-11-20T15:56:54.390Z,10.94
2022-11-20T15:59:21.422Z,10.93
2022-11-20T16:01:51.636Z,11.12
2022-11-20T16:04:19.723Z,10.91
2022-11-20T16:06:47.934Z,10.96
2022-11-20T16:09:14.961Z,10.71
2022-11-20T16:11:41.889Z,10.54
2022-11-20T16:14:30.038Z,11.03
2022-11-20T16:16:56.851Z,10.48
2022-11-20T16:19:23.761Z,10.69
2022-11-20T16:21:50.555Z,10.70
2022-11-20T16:24:17.408Z,10.48
2022-11-20T16:26:44.555Z,10.62
2022-11-20T16:29:11.813Z,10.74
2022-11-20T16:31:39.000Z,11.05
2022-11-20T16:34:11.817Z,11.14
2022-11-20T16:36:43.292Z,10.98
2022-11-20T16:39:10.570Z,10.72
2022-11-20T16:41:37.659Z,10.47
2022-11-20T16:44:09.285Z,11.16
2022-11-20T16:46:36.451Z,10.51
2022-11-20T16:49:07.232Z,10.68
2022-11-20T16:51:37.446Z,10.67
2022-11-20T16:54:06.081Z,11.27
2022-11-20T16:56:33.253Z,11.39
2022-11-20T16:59:00.901Z,11.04
2022-11-20T17:01:29.118Z,11.13
2022-11-20T17:04:01.112Z,11.41
2022-11-20T17:06:32.494Z,10.77
2022-11-20T17:08:59.670Z,11.11
2022-11-20T17:11:27.527Z,10.96
2022-11-20T17:14:00.775Z,10.72
2022-11-20T17:16:27.863Z,11.50
2022-11-20T17:19:01.300Z,11.71
2022-11-20T17:21:31.076Z,11.21
2022-11-20T17:24:02.510Z,11.36
2022-11-20T17:26:29.727Z,11.33
2022-11-20T17:29:06.337Z,11.28
2022-11-20T17:31:35.982Z,11.33
2022-11-20T17:34:02.787Z,10.93
2022-11-20T17:36:30.644Z,11.02
2022-11-20T17:38:58.046Z,10.62
2022-11-20T17:41:26.878Z,11.01
2022-11-20T17:43:57.752Z,10.63
2022-11-20T17:46:27.035Z,10.86
2022-11-20T17:48:54.206Z,10.94
2022-11-20T17:51:23.847Z,10.45
2022-11-20T17:53:53.024Z,10.40
2022-11-20T17:56:38.948Z,10.06
2022-11-20T17:59:09.412Z,10.61
2022-11-20T18:01:36.345Z,10.40
2022-11-20T18:04:03.522Z,10.93
2022-11-20T18:06:31.181Z,11.28
2022-11-20T18:08:59.337Z,10.79
2022-11-20T18:11:28.113Z,11.09
2022-11-20T18:14:15.777Z,10.83
2022-11-20T18:16:52.046Z,10.95
2022-11-20T18:19:21.024Z,10.98
2022-11-20T18:21:47.945Z,11.01
2022-11-20T18:24:15.325Z,10.93
2022-11-20T18:26:44.512Z,10.50
2022-11-20T18:29:13.038Z,10.92
2022-11-20T18:31:40.659Z,10.71
2022-11-20T18:34:11.727Z,10.91
2022-11-20T18:36:39.785Z,10.64
2022-11-20T18:39:07.035Z,11.32
2022-11-20T18:41:52.829Z,11.17
2022-11-20T18:44:41.551Z,10.58
2022-11-20T18:47:14.464Z,11.09
2022-11-20T18:49:42.962Z,11.28
2022-11-20T18:52:14.901Z,10.98
2022-11-20T18:54:48.507Z,10.53
2022-11-20T18:57:19.476Z,11.24
2022-11-20T18:59:46.420Z,10.71
2022-11-20T19:02:15.134Z,10.97
2022-11-20T19:04:42.933Z,11.25
2022-11-20T19:07:12.211Z,11.07
2022-11-20T19:09:42.819Z,11.02
2022-11-20T19:12:11.448Z,10.85
2022-11-20T19:14:39.012Z,11.15
2022-11-20T19:17:06.965Z,10.87
2022-11-20T19:19:35.235Z,10.62
2022-11-20T19:22:02.579Z,10.83
2022-11-20T19:24:29.457Z,11.11
2022-11-20T19:26:57.348Z,11.30
2022-11-20T19:29:25.749Z,11.11
2022-11-20T19:31:53.944Z,10.68
2022-11-20T19:34:20.779Z,10.99
2022-11-20T19:36:47.689Z,11.23
2022-11-20T19:39:14.423Z,10.62
2022-11-20T19:41:42.766Z,10.89
2022-11-20T19:44:14.482Z,10.61
2022-11-20T19:46:41.722Z,11.03
2022-11-20T19:49:10.526Z,11.77
2022-11-20T19:51:39.415Z,11.01
2022-11-20T19:54:06.706Z,10.69
2022-11-20T19:56:34.429Z,10.59
2022-11-20T19:59:04.414Z,11.06
2022-11-20T20:01:31.943Z,11.11
2022-11-20T20:04:05.473Z,10.84
2022-11-20T20:06:35.005Z,11.16
2022-11-20T20:09:07.307Z,11.58
2022-11-20T20:11:34.871Z,11.24
2022-11-20T20:14:09.721Z,10.56
2022-11-20T20:16:36.618Z,10.38
2022-11-20T20:19:04.758Z,10.35
2022-11-20T20:21:36.652Z,10.67
2022-11-20T20:24:04.638Z,10.75
2022-11-20T20:26:32.328Z,10.67
2022-11-20T20:29:00.908Z,10.85
2022-11-20T20:31:32.039Z,10.80
2022-11-20T20:33:59.079Z,10.79
2022-11-20T20:36:25.983Z,10.76
2022-11-20T20:38:56.960Z,10.85
2022-11-20T20:41:24.951Z,11.33
2022-11-20T20:44:11.234Z,10.86
2022-11-20T20:46:38.468Z,10.88
2022-11-20T20:49:05.592Z,10.85
2022-11-20T20:51:32.474Z,10.57
2022-11-20T20:53:59.603Z,10.69
2022-11-20T20:56:26.796Z,10.88
2022-11-20T20:58:54.215Z,10.57
2022-11-20T21:01:21.609Z,11.28
2022-11-20T21:03:48.556Z,11.23
2022-11-20T21:06:15.328Z,10.46
2022-11-20T21:08:46.218Z,10.38
2022-11-20T21:11:16.255Z,10.25
2022-11-20T21:13:44.613Z,11.41
2022-11-20T21:16:19.015Z,10.82
2022-11-20T21:18:46.056Z,10.42
2022-11-20T21:21:33.490Z,10.36
2022-11-20T21:24:01.555Z,10.78
2022-11-20T21:26:28.825Z,10.34
2022-11-20T21:28:57.575Z,10.11
2022-11-20T21:31:27.083Z,10.29
2022-11-20T21:33:55.330Z,9.98
2022-11-20T21:36:27.325Z,9.88
2022-11-20T21:38:56.112Z,10.10
2022-11-20T21:41:24.323Z,9.88
2022-11-20T21:44:23.715Z,10.13
2022-11-20T21:46:43.892Z,10.05
2022-11-20T21:49:11.342Z,10.16
2022-11-20T21:51:38.351Z,9.78
2022-11-20T21:54:05.123Z,10.41
2022-11-20T21:56:32.038Z,10.09
2022-11-20T21:58:59.051Z,10.19
2022-11-20T22:01:28.483Z,9.60
2022-11-20T22:04:05.241Z,9.70
2022-11-20T22:06:34.610Z,10.20
2022-11-20T22:09:02.637Z,9.97
2022-11-20T22:11:35.608Z,9.58
2022-11-20T22:14:21.158Z,9.70
2022-11-20T22:16:50.956Z,9.58
2022-11-20T22:19:19.157Z,10.22
2022-11-20T22:21:46.097Z,9.68
2022-11-20T22:24:22.822Z,10.27
2022-11-20T22:26:53.028Z,9.75
2022-11-20T22:29:23.232Z,9.65
2022-11-20T22:31:53.856Z,10.08
2022-11-20T22:34:21.182Z,10.17
2022-11-20T22:36:48.455Z,9.91
2022-11-20T22:39:17.767Z,9.66
2022-11-20T22:41:45.104Z,9.65
2022-11-20T22:44:16.438Z,10.24
2022-11-20T22:46:45.209Z,9.51
2022-11-20T22:49:12.067Z,10.41
2022-11-20T22:51:44.132Z,10.00
2022-11-20T22:54:13.137Z,9.42
2022-11-20T22:56:44.774Z,10.13
2022-11-20T22:59:11.686Z,10.23
2022-11-20T23:01:38.809Z,9.93
2022-11-20T23:04:08.546Z,10.71
2022-11-20T23:06:36.055Z,9.87
2022-11-20T23:09:05.046Z,10.03
2022-11-20T23:11:32.727Z,9.75
2022-11-20T23:14:05.638Z,9.70
2022-11-20T23:16:33.486Z,9.97
2022-11-20T23:19:06.476Z,9.61
2022-11-20T23:21:34.812Z,9.70
2022-11-20T23:24:02.040Z,9.57
2022-11-20T23:26:31.079Z,9.92
2022-11-20T23:28:59.546Z,10.17
2022-11-20T23:31:28.963Z,9.89
2022-11-20T23:33:55.808Z,10.16
2022-11-20T23:36:22.771Z,10.09
2022-11-20T23:38:49.617Z,9.70
2022-11-20T23:41:16.965Z,9.88
2022-11-20T23:43:43.837Z,9.84
2022-11-20T23:46:15.238Z,10.02
2022-11-20T23:48:44.892Z,10.15
2022-11-20T23:51:11.896Z,10.28
2022-11-20T23:53:38.951Z,9.76
2022-11-20T23:56:06.205Z,9.51
2022-11-20T23:58:35.523Z,9.64
